createdAt,value
2022-11-19T00:02:05.162Z,100690.90
2022-11-19T00:04:33.322Z,100688.41
2022-11-19T00:07:01.205Z,100688.41
2022-11-19T00:09:29.150Z,100682.20
2022-11-19T00:12:15.349Z,100678.84
2022-11-19T00:14:43.380Z,100679.20
2022-11-19T00:17:11.274Z,100674.81
2022-11-19T00:19:39.153Z,100672.95
2022-11-19T00:22:07.013Z,100674.95
2022-11-19T00:24:34.891Z,100674.42
2022-11-19T00:27:02.737Z,100688.98
2022-11-19T00:29:30.594Z,100679.91
2022-11-19T00:32:03.135Z,100677.76
2022-11-19T00:34:31.133Z,100676.38
2022-11-19T00:36:59.014Z,100675.44
2022-11-19T00:39:26.806Z,100681.29
2022-11-19T00:41:59.568Z,100681.16
2022-11-19T00:44:29.446Z,100683.52
2022-11-19T00:47:00.420Z,100680.54
2022-11-19T00:49:32.743Z,100685.87
2022-11-19T00:52:00.700Z,100681.55
2022-11-19T00:54:28.470Z,100675.38
2022-11-19T00:56:56.317Z,100681.88
2022-11-19T00:59:24.290Z,100682.37
2022-11-19T01:01:52.235Z,100681.71
2022-11-19T01:04:20.044Z,100680.77
2022-11-19T01:06:47.849Z,100689.46
2022-11-19T01:09:15.805Z,100679.10
2022-11-19T01:11:43.562Z,100681.62
2022-11-19T01:14:11.568Z,100689.50
2022-11-19T01:16:41.117Z,100691.16
2022-11-19T01:19:10.139Z,100690.31
2022-11-19T01:21:38.145Z,100687.96
2022-11-19T01:24:06.232Z,100684.46
2022-11-19T01:26:42.876Z,100690.67
2022-11-19T01:29:13.173Z,100684.46
2022-11-19T01:31:41.076Z,100684.16
2022-11-19T01:34:08.858Z,100689.34
2022-11-19T01:36:36.869Z,100682.63
2022-11-19T01:39:04.797Z,100686.29
2022-11-19T01:41:33.337Z,100686.29
2022-11-19T01:44:07.752Z,100681.62
2022-11-19T01:46:39.200Z,100684.79
2022-11-19T01:49:17.999Z,100688.81
2022-11-19T01:51:54.344Z,100693.78
2022-11-19T01:54:27.802Z,100697.80
2022-11-19T01:56:56.140Z,100700.12
2022-11-19T01:59:23.954Z,100695.25
2022-11-19T02:01:54.832Z,100696.43
2022-11-19T02:04:22.774Z,100706.30
2022-11-19T02:06:50.550Z,100705.98
2022-11-19T02:09:20.607Z,100707.48
2022-11-19T02:12:10.235Z,100716.54
2022-11-19T02:15:06.252Z,100720.72
2022-11-19T02:17:50.179Z,100710.68
2022-11-19T02:20:42.950Z,100721.90
2022-11-19T02:23:22.548Z,100713.89
2022-11-19T02:26:21.514Z,100714.61
2022-11-19T02:28:52.072Z,100720.75
2022-11-19T02:31:32.720Z,100721.27
2022-11-19T02:34:12.134Z,100725.13
2022-11-19T02:36:55.540Z,100717.95
2022-11-19T02:39:41.012Z,100714.80
2022-11-19T02:42:29.642Z,100713.27
2022-11-19T02:45:00.834Z,100719.80
2022-11-19T02:47:34.773Z,100714.31
2022-11-19T02:50:08.580Z,100711.63
2022-11-19T02:52:36.923Z,100718.66
2022-11-19T02:55:05.101Z,100719.15
2022-11-19T02:57:32.890Z,100711.14
2022-11-19T03:00:23.263Z,100721.84
2022-11-19T03:03:33.521Z,100719.02
2022-11-19T03:06:08.774Z,100724.87
2022-11-19T03:08:36.641Z,100717.68
2022-11-19T03:11:18.473Z,100716.86
2022-11-19T03:14:24.341Z,100715.69
2022-11-19T03:17:05.627Z,100716.02
2022-11-19T03:19:45.607Z,100707.67
2022-11-19T03:22:20.161Z,100714.84
2022-11-19T03:25:11.123Z,100712.52
2022-11-19T03:27:49.663Z,100711.86
2022-11-19T03:30:17.885Z,100722.03
2022-11-19T03:33:15.502Z,100726.21
2022-11-19T03:35:52.498Z,100718.53
2022-11-19T03:38:24.784Z,100722.72
2022-11-19T03:40:52.843Z,100721.54
2022-11-19T03:43:21.308Z,100724.91
2022-11-19T03:45:49.129Z,100716.90
2022-11-19T03:48:17.262Z,100711.53
2022-11-19T03:50:52.777Z,100710.36
2022-11-19T03:53:20.575Z,100714.05
2022-11-19T03:56:06.881Z,100719.05
2022-11-19T03:58:42.746Z,100715.36
2022-11-19T04:01:10.902Z,100722.23
2022-11-19T04:03:38.780Z,100718.73
2022-11-19T04:06:06.665Z,100721.24
2022-11-19T04:08:34.511Z,100722.06
2022-11-19T04:13:28.015Z,100725.23
2022-11-19T04:15:55.971Z,100730.10
2022-11-19T04:18:23.784Z,100728.08
2022-11-19T04:20:51.639Z,100724.41
2022-11-19T04:23:19.412Z,100722.39
2022-11-19T04:25:48.558Z,100717.55
2022-11-19T04:28:16.420Z,100721.21
2022-11-19T04:30:44.404Z,100720.91
2022-11-19T04:33:12.351Z,100725.76
2022-11-19T04:35:40.414Z,100718.37
2022-11-19T04:38:08.215Z,100716.41
2022-11-19T04:40:36.085Z,100710.20
2022-11-19T04:43:03.878Z,100707.35
2022-11-19T04:45:31.689Z,100712.05
2022-11-19T04:47:59.675Z,100709.87
2022-11-19T04:50:27.442Z,100714.54
2022-11-19T04:52:55.230Z,100716.90
2022-11-19T04:55:23.162Z,100723.89
2022-11-19T04:57:57.057Z,100715.52
2022-11-19T05:00:26.933Z,100711.34
2022-11-19T05:02:54.750Z,100719.19
2022-11-19T05:05:22.559Z,100719.19
2022-11-19T05:07:50.397Z,100725.69
2022-11-19T05:10:18.297Z,100722.36
2022-11-19T05:12:46.466Z,100725.89
2022-11-19T05:15:14.356Z,100736.61
2022-11-19T05:17:42.184Z,100733.41
2022-11-19T05:20:10.468Z,100738.12
2022-11-19T05:22:38.613Z,100736.94
2022-11-19T05:25:06.612Z,100732.91
2022-11-19T05:27:34.523Z,100727.75
2022-11-19T05:30:02.433Z,100724.05
2022-11-19T05:32:30.205Z,100728.57
2022-11-19T05:35:02.917Z,100727.39
2022-11-19T05:37:30.774Z,100730.76
2022-11-19T05:39:58.898Z,100725.59
2022-11-19T05:42:26.701Z,100724.41
2022-11-19T05:44:54.494Z,100737.79
2022-11-19T05:47:22.384Z,100715.55
2022-11-19T05:49:54.873Z,100724.91
2022-11-19T05:52:27.372Z,100725.40
2022-11-19T05:54:55.246Z,100726.57
2022-11-19T05:57:23.176Z,100731.94
2022-11-19T05:59:50.954Z,100730.23
2022-11-19T06:02:19.065Z,100731.61
2022-11-19T06:04:49.923Z,100725.59
2022-11-19T06:07:17.881Z,100731.61
2022-11-19T06:09:45.861Z,100734.45
2022-11-19T06:12:13.852Z,100731.45
2022-11-19T06:14:43.195Z,100722.75
2022-11-19T06:17:11.185Z,100735.60
2022-11-19T06:19:39.068Z,100734.91
2022-11-19T06:22:06.872Z,100746.13
2022-11-19T06:24:34.726Z,100744.10
2022-11-19T06:27:02.682Z,100752.80
2022-11-19T06:29:30.428Z,100754.92
2022-11-19T06:31:58.284Z,100754.92
2022-11-19T06:34:30.607Z,100748.87
2022-11-19T06:36:59.941Z,100762.08
2022-11-19T06:39:27.823Z,100751.39
2022-11-19T06:41:55.652Z,100761.07
2022-11-19T06:44:23.734Z,100762.05
2022-11-19T06:46:51.643Z,100775.42
2022-11-19T06:49:20.489Z,100775.75
2022-11-19T06:51:49.597Z,100767.67
2022-11-19T06:54:17.464Z,100773.03
2022-11-19T06:56:45.420Z,100785.36
2022-11-19T06:59:13.297Z,100792.88
2022-11-19T07:01:41.290Z,100796.38
2022-11-19T07:04:09.200Z,100798.70
2022-11-19T07:06:37.031Z,100800.50
2022-11-19T07:09:05.102Z,100805.50
2022-11-19T07:11:32.947Z,100808.51
2022-11-19T07:14:01.141Z,100817.53
2022-11-19T07:16:33.584Z,100825.05
2022-11-19T07:19:02.379Z,100824.70
2022-11-19T07:21:30.461Z,100837.25
2022-11-19T07:23:58.541Z,100834.93
2022-11-19T07:26:29.349Z,100839.96
2022-11-19T07:29:01.758Z,100837.61
2022-11-19T07:31:32.408Z,100829.44
2022-11-19T07:34:00.353Z,100835.95
2022-11-19T07:36:32.831Z,100848.30
2022-11-19T07:39:00.646Z,100843.17
2022-11-19T07:41:47.086Z,100841.34
2022-11-19T07:44:14.968Z,100844.34
2022-11-19T07:46:42.925Z,100850.43
2022-11-19T07:49:10.893Z,100852.62
2022-11-19T07:51:38.800Z,100855.82
2022-11-19T07:54:06.904Z,100854.02
2022-11-19T07:56:39.616Z,100853.47
2022-11-19T07:59:07.776Z,100862.27
2022-11-19T08:01:35.836Z,100855.98
2022-11-19T08:04:04.141Z,100858.63
2022-11-19T08:06:36.477Z,100858.73
2022-11-19T08:09:05.972Z,100851.51
2022-11-19T08:11:33.902Z,100850.10
2022-11-19T08:14:03.256Z,100853.77
2022-11-19T08:16:49.684Z,100852.23
2022-11-19T08:19:18.312Z,100854.13
2022-11-19T08:21:47.354Z,100851.73
2022-11-19T08:24:15.678Z,100856.77
2022-11-19T08:26:43.488Z,100858.38
2022-11-19T08:29:16.306Z,100853.63
2022-11-19T08:31:47.093Z,100861.45
2022-11-19T08:34:15.581Z,100847.68
2022-11-19T08:36:43.553Z,100850.82
2022-11-19T08:39:11.597Z,100846.54
2022-11-19T08:41:58.079Z,100851.48
2022-11-19T08:44:26.049Z,100854.02
2022-11-19T08:46:53.931Z,100858.86
2022-11-19T08:49:22.600Z,100858.54
2022-11-19T08:51:50.689Z,100860.98
2022-11-19T08:54:18.790Z,100864.88
2022-11-19T08:56:51.693Z,100865.63
2022-11-19T08:59:23.962Z,100866.84
2022-11-19T09:01:52.084Z,100857.72
2022-11-19T09:04:28.172Z,100868.09
2022-11-19T09:06:56.082Z,100863.24
2022-11-19T09:09:26.954Z,100866.71
2022-11-19T09:11:56.769Z,100864.06
2022-11-19T09:14:24.705Z,100869.20
2022-11-19T09:16:52.438Z,100866.32
2022-11-19T09:19:20.667Z,100861.84
2022-11-19T09:21:48.645Z,100871.35
2022-11-19T09:24:16.575Z,100870.21
2022-11-19T09:26:48.881Z,100873.80
2022-11-19T09:29:19.839Z,100869.42
2022-11-19T09:31:47.725Z,100871.42
2022-11-19T09:34:15.613Z,100874.91
2022-11-19T09:36:43.673Z,100882.66
2022-11-19T09:39:12.027Z,100874.75
2022-11-19T09:42:25.025Z,100878.22
2022-11-19T09:44:55.942Z,100889.63
2022-11-19T09:47:31.200Z,100890.25
2022-11-19T09:50:28.005Z,100884.70
2022-11-19T09:53:17.588Z,100894.80
2022-11-19T09:55:46.976Z,100894.73
2022-11-19T09:58:23.979Z,100883.02
2022-11-19T10:00:51.831Z,100890.84
2022-11-19T10:03:31.636Z,100886.59
2022-11-19T10:06:16.394Z,100886.66
2022-11-19T10:09:15.890Z,100883.91
2022-11-19T10:11:58.083Z,100876.42
2022-11-19T10:14:31.755Z,100878.16
2022-11-19T10:17:05.101Z,100880.57
2022-11-19T10:19:51.367Z,100883.35
2022-11-19T10:22:57.693Z,100874.43
2022-11-19T10:25:29.649Z,100875.44
2022-11-19T10:28:05.030Z,100867.46
2022-11-19T10:30:33.020Z,100863.15
2022-11-19T10:33:06.125Z,100864.52
2022-11-19T10:35:37.453Z,100862.27
2022-11-19T10:38:13.560Z,100861.67
2022-11-19T10:40:44.169Z,100849.58
2022-11-19T10:43:23.652Z,100856.09
2022-11-19T10:45:52.149Z,100854.02
2022-11-19T10:48:37.652Z,100850.07
2022-11-19T10:51:12.785Z,100848.34
2022-11-19T10:53:40.734Z,100850.66
2022-11-19T10:56:17.115Z,100839.28
2022-11-19T10:58:52.856Z,100836.17
2022-11-19T11:01:32.586Z,100838.27
2022-11-19T11:04:16.813Z,100836.73
2022-11-19T11:06:57.120Z,100832.15
2022-11-19T11:09:41.749Z,100836.34
2022-11-19T11:12:40.032Z,100829.53
2022-11-19T11:15:25.866Z,100827.34
2022-11-19T11:18:07.802Z,100831.79
2022-11-19T11:20:37.443Z,100827.54
2022-11-19T11:23:11.628Z,100828.45
2022-11-19T11:25:40.135Z,100826.13
2022-11-19T11:28:20.840Z,100823.91
2022-11-19T11:30:58.412Z,100825.52
2022-11-19T11:33:26.199Z,100826.52
2022-11-19T11:35:56.350Z,100823.68
2022-11-19T11:38:25.493Z,100827.05
2022-11-19T11:44:21.276Z,100821.36
2022-11-19T11:46:56.013Z,100836.04
2022-11-19T11:49:44.601Z,100817.41
2022-11-19T11:52:17.080Z,100817.89
2022-11-19T11:55:01.389Z,100810.18
2022-11-19T11:57:34.178Z,100803.97
2022-11-19T12:00:22.529Z,100816.36
2022-11-19T12:03:04.634Z,100806.87
2022-11-19T12:05:46.885Z,100809.33
2022-11-19T12:08:47.119Z,100800.96
2022-11-19T12:11:55.467Z,100795.73
2022-11-19T12:14:32.097Z,100798.08
2022-11-19T12:17:14.996Z,100801.12
2022-11-19T12:19:49.250Z,100806.84
2022-11-19T12:22:47.976Z,100797.79
2022-11-19T12:25:53.080Z,100806.09
2022-11-19T12:28:25.550Z,100794.35
2022-11-19T12:30:59.847Z,100802.07
2022-11-19T12:33:54.148Z,100799.55
2022-11-19T12:36:58.040Z,100798.63
2022-11-19T12:39:54.025Z,100793.41
2022-11-19T12:42:55.846Z,100801.77
2022-11-19T12:45:38.058Z,100802.00
2022-11-19T12:48:45.020Z,100808.55
2022-11-19T12:51:18.776Z,100800.30
2022-11-19T12:54:10.732Z,100806.45
2022-11-19T12:56:50.643Z,100815.38
2022-11-19T12:59:22.835Z,100816.09
2022-11-19T13:01:52.563Z,100810.05
2022-11-19T13:04:30.925Z,100806.26
2022-11-19T13:07:14.200Z,100814.49
2022-11-19T13:09:52.968Z,100809.49
2022-11-19T13:12:38.095Z,100802.30
2022-11-19T13:15:16.771Z,100802.46
2022-11-19T13:17:50.770Z,100804.39
2022-11-19T13:20:39.534Z,100807.59
2022-11-19T13:23:07.582Z,100805.66
2022-11-19T13:25:35.401Z,100807.95
2022-11-19T13:28:07.979Z,100807.23
2022-11-19T13:30:37.960Z,100801.19
2022-11-19T13:33:25.122Z,100800.34
2022-11-19T13:36:21.382Z,100800.08
2022-11-19T13:38:55.711Z,100797.95
2022-11-19T13:41:27.497Z,100801.25
2022-11-19T13:44:16.894Z,100803.51
2022-11-19T13:46:50.073Z,100791.84
2022-11-19T13:49:24.313Z,100790.53
2022-11-19T13:52:04.876Z,100787.88
2022-11-19T13:54:39.609Z,100790.53
2022-11-19T13:57:08.444Z,100781.47
2022-11-19T13:59:44.720Z,100788.40
2022-11-19T14:02:50.234Z,100786.73
2022-11-19T14:05:49.024Z,100791.73
2022-11-19T14:08:44.766Z,100781.73
2022-11-19T14:11:41.647Z,100785.88
2022-11-19T14:14:49.434Z,100785.72
2022-11-19T14:17:39.894Z,100779.28
2022-11-19T14:20:53.569Z,100789.22
2022-11-19T14:24:05.802Z,100786.87
2022-11-19T14:26:42.435Z,100784.58
2022-11-19T14:29:19.754Z,100791.70
2022-11-19T14:32:07.463Z,100798.11
2022-11-19T14:34:36.985Z,100797.62
2022-11-19T14:37:06.678Z,100800.47
2022-11-19T14:39:43.865Z,100807.95
2022-11-19T14:42:24.203Z,100810.51
2022-11-19T14:45:04.414Z,100806.35
2022-11-19T14:47:36.433Z,100804.72
2022-11-19T14:50:09.151Z,100815.67
2022-11-19T14:52:57.725Z,100806.48
2022-11-19T14:55:32.422Z,100814.40
2022-11-19T14:58:22.819Z,100813.91
2022-11-19T15:00:51.972Z,100814.59
2022-11-19T15:03:25.188Z,100821.00
2022-11-19T15:05:55.997Z,100818.84
2022-11-19T15:08:29.437Z,100817.50
2022-11-19T15:11:03.146Z,100821.55
2022-11-19T15:13:38.327Z,100828.65
2022-11-19T15:16:20.722Z,100826.36
2022-11-19T15:18:53.166Z,100832.25
2022-11-19T15:21:58.375Z,100832.12
2022-11-19T15:24:36.238Z,100836.20
2022-11-19T15:27:38.147Z,100838.52
2022-11-19T15:30:22.070Z,100839.73
2022-11-19T15:33:01.923Z,100838.40
2022-11-19T15:35:37.814Z,100833.39
2022-11-19T15:38:19.992Z,100838.95
2022-11-19T15:40:48.187Z,100845.66
2022-11-19T15:43:36.209Z,100843.98
2022-11-19T15:46:30.212Z,100847.19
2022-11-19T15:49:01.413Z,100846.70
2022-11-19T15:51:29.321Z,100851.41
2022-11-19T15:54:08.011Z,100865.99
2022-11-19T15:56:40.148Z,100866.68
2022-11-19T15:59:08.470Z,100859.32
2022-11-19T16:01:36.340Z,100864.88
2022-11-19T16:04:16.141Z,100872.07
2022-11-19T16:06:47.772Z,100878.12
2022-11-19T16:09:23.007Z,100885.84
2022-11-19T16:12:09.588Z,100882.47
2022-11-19T16:14:56.260Z,100880.15
2022-11-19T16:17:43.590Z,100880.15
2022-11-19T16:20:12.038Z,100883.84
2022-11-19T16:22:39.673Z,100885.51
2022-11-19T16:25:15.114Z,100883.68
2022-11-19T16:27:44.254Z,100889.23
2022-11-19T16:30:23.514Z,100887.21
2022-11-19T16:32:51.633Z,100885.54
2022-11-19T16:35:25.835Z,100893.06
2022-11-19T16:37:54.611Z,100892.08
2022-11-19T16:40:22.694Z,100899.44
2022-11-19T16:43:01.056Z,100894.41
2022-11-19T16:45:30.036Z,100885.02
2022-11-19T16:48:02.481Z,100901.66
2022-11-19T16:50:35.039Z,100903.49
2022-11-19T16:53:03.981Z,100905.84
2022-11-19T16:55:32.809Z,100906.34
2022-11-19T16:58:11.429Z,100915.72
2022-11-19T17:00:39.258Z,100917.91
2022-11-19T17:03:22.338Z,100912.23
2022-11-19T17:05:51.926Z,100920.95
2022-11-19T17:08:23.903Z,100919.74
2022-11-19T17:11:15.310Z,100929.48
2022-11-19T17:13:43.070Z,100930.14
2022-11-19T17:16:18.795Z,100929.32
2022-11-19T17:18:46.712Z,100928.80
2022-11-19T17:21:28.733Z,100936.02
2022-11-19T17:23:56.606Z,100940.21
2022-11-19T17:26:26.886Z,100947.77
2022-11-19T17:29:21.948Z,100943.55
2022-11-19T17:31:50.162Z,100951.13
2022-11-19T17:34:23.332Z,100946.59
2022-11-19T17:36:51.481Z,100955.94
2022-11-19T17:39:25.023Z,100956.63
2022-11-19T17:42:15.619Z,100955.12
2022-11-19T17:44:43.447Z,100966.50
2022-11-19T17:47:24.400Z,100967.67
2022-11-19T17:49:52.826Z,100961.01
2022-11-19T17:52:23.799Z,100964.99
2022-11-19T17:54:52.620Z,100959.30
2022-11-19T17:57:20.569Z,100967.67
2022-11-19T17:59:48.358Z,100960.65
2022-11-19T18:02:17.518Z,100961.66
2022-11-19T18:04:45.868Z,100971.70
2022-11-19T18:07:13.778Z,100974.02
2022-11-19T18:09:41.854Z,100965.32
2022-11-19T18:12:15.324Z,100977.06
2022-11-19T18:14:43.662Z,100980.23
2022-11-19T18:17:12.896Z,100982.72
2022-11-19T18:19:40.836Z,100987.00
2022-11-19T18:22:16.557Z,100984.65
2022-11-19T18:24:44.506Z,100990.66
2022-11-19T18:27:12.379Z,100992.98
2022-11-19T18:29:40.354Z,101001.84
2022-11-19T18:32:08.319Z,101001.12
2022-11-19T18:34:36.788Z,100995.11
2022-11-19T18:37:04.844Z,100999.62
2022-11-19T18:39:32.684Z,101000.08
2022-11-19T18:42:00.577Z,101001.05
2022-11-19T18:44:34.584Z,101006.91
2022-11-19T18:47:07.223Z,101003.25
2022-11-19T18:49:36.155Z,101009.10
2022-11-19T18:52:04.864Z,101009.10
2022-11-19T18:54:33.345Z,101014.27
2022-11-19T18:57:01.293Z,101015.12
2022-11-19T18:59:30.076Z,101006.39
2022-11-19T19:01:58.087Z,101011.75
2022-11-19T19:04:26.170Z,101012.93
2022-11-19T19:06:54.355Z,101008.09
2022-11-19T19:09:22.650Z,101009.76
2022-11-19T19:12:13.574Z,101009.10
2022-11-19T19:14:43.233Z,101015.61
2022-11-19T19:17:11.936Z,101017.30
2022-11-19T19:19:40.173Z,101023.98
2022-11-19T19:22:08.375Z,101018.09
2022-11-19T19:24:36.247Z,101027.61
2022-11-19T19:27:04.334Z,101012.38
2022-11-19T19:29:32.189Z,101011.65
2022-11-19T19:31:59.906Z,101018.84
2022-11-19T19:34:29.190Z,101013.48
2022-11-19T19:36:57.305Z,101016.85
2022-11-19T19:39:25.055Z,101007.14
2022-11-19T19:41:53.402Z,101024.21
2022-11-19T19:44:21.197Z,101023.88
2022-11-19T19:46:49.981Z,101024.21
2022-11-19T19:49:23.021Z,101025.58
2022-11-19T19:51:54.222Z,101030.91
2022-11-19T19:54:22.143Z,101027.25
2022-11-19T19:56:50.056Z,101030.62
2022-11-19T19:59:18.202Z,101026.59
2022-11-19T20:01:48.724Z,101034.60
2022-11-19T20:04:19.791Z,101037.45
2022-11-19T20:06:48.238Z,101039.97
2022-11-19T20:09:16.135Z,101036.60
2022-11-19T20:11:44.070Z,101042.09
2022-11-19T20:14:12.153Z,101048.44
2022-11-19T20:16:41.534Z,101040.55
2022-11-19T20:19:10.370Z,101048.56
2022-11-19T20:21:38.317Z,101051.21
2022-11-19T20:24:11.927Z,101051.87
2022-11-19T20:26:40.333Z,101055.37
2022-11-19T20:29:08.720Z,101055.04
2022-11-19T20:31:36.540Z,101053.70
2022-11-19T20:34:05.371Z,101052.52
2022-11-19T20:36:34.831Z,101050.33
2022-11-19T20:39:03.237Z,101063.15
2022-11-19T20:41:49.777Z,101062.66
2022-11-19T20:44:27.109Z,101056.35
2022-11-19T20:46:59.517Z,101059.20
2022-11-19T20:49:29.004Z,101055.98
2022-11-19T20:51:56.981Z,101052.33
2022-11-19T20:54:24.939Z,101055.50
2022-11-19T20:56:53.322Z,101058.67
2022-11-19T20:59:21.713Z,101067.53
2022-11-19T21:01:50.425Z,101058.27
2022-11-19T21:04:18.664Z,101058.27
2022-11-19T21:06:46.532Z,101065.11
2022-11-19T21:09:15.937Z,101050.73
2022-11-19T21:11:44.509Z,101059.23
2022-11-19T21:14:12.553Z,101053.38
2022-11-19T21:16:40.435Z,101048.50
2022-11-19T21:19:08.292Z,101046.84
2022-11-19T21:21:36.614Z,101044.12
2022-11-19T21:24:04.876Z,101040.26
2022-11-19T21:26:32.697Z,101049.41
2022-11-19T21:29:00.441Z,101042.38
2022-11-19T21:31:46.535Z,101032.64
2022-11-19T21:34:24.217Z,101042.09
2022-11-19T21:36:52.174Z,101044.22
2022-11-19T21:39:20.625Z,101044.74
2022-11-19T21:41:48.731Z,101042.55
2022-11-19T21:44:21.150Z,101049.71
2022-11-19T21:46:49.903Z,101050.13
2022-11-19T21:49:18.119Z,101057.82
2022-11-19T21:51:46.360Z,101048.99
2022-11-19T21:54:14.123Z,101057.20
2022-11-19T21:56:41.865Z,101052.36
2022-11-19T21:59:09.690Z,101046.34
2022-11-19T22:01:37.507Z,101069.03
2022-11-19T22:04:05.577Z,101067.50
2022-11-19T22:06:33.655Z,101063.80
2022-11-19T22:09:01.395Z,101063.61
2022-11-19T22:11:32.494Z,101062.43
2022-11-19T22:14:07.749Z,101059.75
2022-11-19T22:16:37.341Z,101054.55
2022-11-19T22:19:06.738Z,101059.23
2022-11-19T22:21:34.890Z,101055.53
2022-11-19T22:24:02.985Z,101064.16
2022-11-19T22:26:30.848Z,101059.45
2022-11-19T22:28:58.729Z,101068.48
2022-11-19T22:31:26.539Z,101064.91
2022-11-19T22:33:54.854Z,101073.94
2022-11-19T22:36:23.006Z,101065.44
2022-11-19T22:38:51.519Z,101067.76
2022-11-19T22:41:20.172Z,101067.53
2022-11-19T22:43:48.015Z,101072.99
2022-11-19T22:46:16.009Z,101071.32
2022-11-19T22:48:43.915Z,101071.65
2022-11-19T22:51:16.439Z,101082.47
2022-11-19T22:53:44.292Z,101071.98
2022-11-19T22:56:12.839Z,101076.26
2022-11-19T22:58:40.668Z,101081.95
2022-11-19T23:01:09.457Z,101089.83
2022-11-19T23:03:38.316Z,101088.98
2022-11-19T23:06:06.181Z,101085.61
2022-11-19T23:08:33.922Z,101088.98
2022-11-19T23:11:02.969Z,101081.85
2022-11-19T23:13:34.243Z,101089.83
2022-11-19T23:16:12.836Z,101089.83
2022-11-19T23:18:42.707Z,101089.83
2022-11-19T23:21:12.652Z,101094.66
2022-11-19T23:23:40.432Z,101088.98
2022-11-19T23:26:08.881Z,101091.01
2022-11-19T23:28:37.384Z,101093.82
2022-11-19T23:31:24.658Z,101099.51
2022-11-19T23:33:58.573Z,101096.14
2022-11-19T23:36:29.031Z,101089.63
2022-11-19T23:38:56.808Z,101087.97
2022-11-19T23:41:24.605Z,101095.09
2022-11-19T23:43:54.094Z,101091.17
2022-11-19T23:46:23.585Z,101098.66
2022-11-19T23:48:51.415Z,101102.13
2022-11-19T23:51:51.626Z,101104.97
2022-11-19T23:54:19.396Z,101093.30
2022-11-19T23:56:47.332Z,101100.45
2022-11-19T23:59:15.221Z,101108.11
